sensor_id;sensor_type;location;lat;lon;timestamp;temperature;humidity
418;DHT22;49;48.530;9.200;2024-03-23T00:56:10;15.40;7.20
418;DHT22;49;48.530;9.200;2024-03-23T00:58:39;15.20;8.50
418;DHT22;49;48.530;9.200;2024-03-23T01:01:05;15.10;8.50
418;DHT22;49;48.530;9.200;2024-03-23T01:03:32;15.40;11.90
418;DHT22;49;48.530;9.200;2024-03-23T01:05:59;15.50;10.30
418;DHT22;49;48.530;9.200;2024-03-23T01:08:26;15.30;9.20
418;DHT22;49;48.530;9.200;2024-03-23T01:10:55;14.90;8.30
418;DHT22;49;48.530;9.200;2024-03-23T01:13:22;14.60;10.50
418;DHT22;49;48.530;9.200;2024-03-23T01:15:51;14.80;12.90
418;DHT22;49;48.530;9.200;2024-03-23T01:18:18;15.20;11.40
418;DHT22;49;48.530;9.200;2024-03-23T01:20:44;15.50;14.30
418;DHT22;49;48.530;9.200;2024-03-23T01:23:11;15.30;10.20
418;DHT22;49;48.530;9.200;2024-03-23T01:25:37;15.20;13.20
418;DHT22;49;48.530;9.200;2024-03-23T01:28:05;15.50;11.70
418;DHT22;49;48.530;9.200;2024-03-23T01:30:32;15.70;12.00
418;DHT22;49;48.530;9.200;2024-03-23T01:33:00;15.90;12.90
418;DHT22;49;48.530;9.200;2024-03-23T01:35:26;16.10;13.00
418;DHT22;49;48.530;9.200;2024-03-23T01:37:53;16.00;9.10
418;DHT22;49;48.530;9.200;2024-03-23T01:40:19;15.60;8.80
418;DHT22;49;48.530;9.200;2024-03-23T01:42:55;15.10;8.40
418;DHT22;49;48.530;9.200;2024-03-23T01:45:21;14.60;11.80
418;DHT22;49;48.530;9.200;2024-03-23T01:47:49;15.00;14.50
418;DHT22;49;48.530;9.200;2024-03-23T01:50:16;15.20;14.70
418;DHT22;49;48.530;9.200;2024-03-23T01:52:43;15.50;13.60
418;DHT22;49;48.530;9.200;2024-03-23T01:55:10;15.50;10.80
418;DHT22;49;48.530;9.200;2024-03-23T01:57:37;15.70;12.80
418;DHT22;49;48.530;9.200;2024-03-23T02:00:04;15.80;11.80
418;DHT22;49;48.530;9.200;2024-03-23T02:02:32;15.80;10.60
418;DHT22;49;48.530;9.200;2024-03-23T02:04:58;15.70;10.80
418;DHT22;49;48.530;9.200;2024-03-23T02:07:26;16.00;13.00
418;DHT22;49;48.530;9.200;2024-03-23T02:09:53;16.20;9.30
418;DHT22;49;48.530;9.200;2024-03-23T02:12:21;15.80;9.30
418;DHT22;49;48.530;9.200;2024-03-23T02:14:47;16.00;12.70
418;DHT22;49;48.530;9.200;2024-03-23T02:17:14;16.30;10.10
418;DHT22;49;48.530;9.200;2024-03-23T02:19:40;16.50;12.20
418;DHT22;49;48.530;9.200;2024-03-23T02:22:07;16.80;10.60
418;DHT22;49;48.530;9.200;2024-03-23T02:24:34;16.90;11.30
418;DHT22;49;48.530;9.200;2024-03-23T02:27:02;17.00;11.00
418;DHT22;49;48.530;9.200;2024-03-23T02:29:28;16.90;9.70
418;DHT22;49;48.530;9.200;2024-03-23T02:31:55;16.90;9.70
418;DHT22;49;48.530;9.200;2024-03-23T02:34:21;16.90;9.60
418;DHT22;49;48.530;9.200;2024-03-23T02:36:48;16.60;9.60
418;DHT22;49;48.530;9.200;2024-03-23T02:39:14;16.40;8.90
418;DHT22;49;48.530;9.200;2024-03-23T02:41:43;16.00;8.50
418;DHT22;49;48.530;9.200;2024-03-23T02:44:09;15.40;10.80
418;DHT22;49;48.530;9.200;2024-03-23T02:46:37;15.20;13.90
418;DHT22;49;48.530;9.200;2024-03-23T02:49:03;15.50;12.80
418;DHT22;49;48.530;9.200;2024-03-23T02:51:30;16.00;12.20
418;DHT22;49;48.530;9.200;2024-03-23T02:53:56;15.90;9.70
418;DHT22;49;48.530;9.200;2024-03-23T02:56:23;16.10;12.80
418;DHT22;49;48.530;9.200;2024-03-23T02:58:50;15.90;9.00
418;DHT22;49;48.530;9.200;2024-03-23T03:01:18;15.20;9.80
418;DHT22;49;48.530;9.200;2024-03-23T03:03:44;15.20;10.70
418;DHT22;49;48.530;9.200;2024-03-23T03:06:11;15.60;13.80
418;DHT22;49;48.530;9.200;2024-03-23T03:08:37;15.70;12.00
418;DHT22;49;48.530;9.200;2024-03-23T03:11:04;15.70;11.90
418;DHT22;49;48.530;9.200;2024-03-23T03:13:30;15.80;12.60
418;DHT22;49;48.530;9.200;2024-03-23T03:15:58;16.20;13.50
418;DHT22;49;48.530;9.200;2024-03-23T03:18:24;16.30;12.50
418;DHT22;49;48.530;9.200;2024-03-23T03:20:54;16.30;10.60
418;DHT22;49;48.530;9.200;2024-03-23T03:23:20;16.50;11.90
418;DHT22;49;48.530;9.200;2024-03-23T03:25:47;16.50;11.70
418;DHT22;49;48.530;9.200;2024-03-23T03:28:13;16.40;10.80
418;DHT22;49;48.530;9.200;2024-03-23T03:30:40;16.30;11.80
418;DHT22;49;48.530;9.200;2024-03-23T03:33:08;16.30;12.40
418;DHT22;49;48.530;9.200;2024-03-23T03:35:35;16.40;11.70
418;DHT22;49;48.530;9.200;2024-03-23T03:38:01;16.30;11.30
418;DHT22;49;48.530;9.200;2024-03-23T03:40:27;16.00;11.00
418;DHT22;49;48.530;9.200;2024-03-23T03:42:55;16.00;11.70
418;DHT22;49;48.530;9.200;2024-03-23T03:45:22;16.10;10.90
418;DHT22;49;48.530;9.200;2024-03-23T03:47:47;16.10;11.40
418;DHT22;49;48.530;9.200;2024-03-23T03:50:16;16.10;11.70
418;DHT22;49;48.530;9.200;2024-03-23T03:52:45;16.10;13.00
418;DHT22;49;48.530;9.200;2024-03-23T03:55:13;16.20;13.00
418;DHT22;49;48.530;9.200;2024-03-23T03:57:39;16.40;13.20
418;DHT22;49;48.530;9.200;2024-03-23T04:00:08;16.50;12.60
418;DHT22;49;48.530;9.200;2024-03-23T04:02:36;16.60;12.20
418;DHT22;49;48.530;9.200;2024-03-23T04:05:06;16.50;11.50
418;DHT22;49;48.530;9.200;2024-03-23T04:07:35;16.50;12.10
418;DHT22;49;48.530;9.200;2024-03-23T04:10:02;16.40;13.10
418;DHT22;49;48.530;9.200;2024-03-23T04:12:32;16.30;12.70
418;DHT22;49;48.530;9.200;2024-03-23T04:14:59;16.40;13.00
418;DHT22;49;48.530;9.200;2024-03-23T04:17:26;16.40;12.20
418;DHT22;49;48.530;9.200;2024-03-23T04:19:57;16.50;11.90
418;DHT22;49;48.530;9.200;2024-03-23T04:22:23;16.50;12.30
418;DHT22;49;48.530;9.200;2024-03-23T04:24:56;16.30;12.40
418;DHT22;49;48.530;9.200;2024-03-23T04:27:22;16.40;12.30
418;DHT22;49;48.530;9.200;2024-03-23T04:29:49;16.30;12.20
418;DHT22;49;48.530;9.200;2024-03-23T04:32:19;16.30;13.00
418;DHT22;49;48.530;9.200;2024-03-23T04:34:46;16.30;12.70
418;DHT22;49;48.530;9.200;2024-03-23T04:37:12;16.30;12.30
418;DHT22;49;48.530;9.200;2024-03-23T04:39:39;16.40;12.40
418;DHT22;49;48.530;9.200;2024-03-23T04:42:09;16.30;12.80
418;DHT22;49;48.530;9.200;2024-03-23T04:44:37;16.40;12.70
418;DHT22;49;48.530;9.200;2024-03-23T04:47:05;16.30;12.50
418;DHT22;49;48.530;9.200;2024-03-23T04:49:32;16.40;12.60
418;DHT22;49;48.530;9.200;2024-03-23T04:52:02;16.40;12.50
418;DHT22;49;48.530;9.200;2024-03-23T04:54:29;16.60;12.10
418;DHT22;49;48.530;9.200;2024-03-23T04:56:55;16.80;12.30
418;DHT22;49;48.530;9.200;2024-03-23T04:59:24;17.10;11.30
418;DHT22;49;48.530;9.200;2024-03-23T05:01:50;17.20;11.50
418;DHT22;49;48.530;9.200;2024-03-23T05:04:17;17.30;10.80
418;DHT22;49;48.530;9.200;2024-03-23T05:06:43;17.20;10.20
418;DHT22;49;48.530;9.200;2024-03-23T05:09:10;17.10;10.40
418;DHT22;49;48.530;9.200;2024-03-23T05:11:37;17.10;10.40
418;DHT22;49;48.530;9.200;2024-03-23T05:14:04;16.70;11.00
418;DHT22;49;48.530;9.200;2024-03-23T05:16:32;16.70;10.70
418;DHT22;49;48.530;9.200;2024-03-23T05:18:59;16.90;10.50
418;DHT22;49;48.530;9.200;2024-03-23T05:21:26;16.90;10.70
418;DHT22;49;48.530;9.200;2024-03-23T05:23:54;16.60;11.40
418;DHT22;49;48.530;9.200;2024-03-23T05:26:23;15.90;13.90
418;DHT22;49;48.530;9.200;2024-03-23T05:28:50;15.60;14.90
418;DHT22;49;48.530;9.200;2024-03-23T05:31:23;15.50;16.20
418;DHT22;49;48.530;9.200;2024-03-23T05:33:53;15.40;17.20
418;DHT22;49;48.530;9.200;2024-03-23T05:36:20;15.30;18.90
418;DHT22;49;48.530;9.200;2024-03-23T05:38:50;15.30;20.10
418;DHT22;49;48.530;9.200;2024-03-23T05:41:16;15.40;20.80
418;DHT22;49;48.530;9.200;2024-03-23T05:43:43;15.10;23.50
418;DHT22;49;48.530;9.200;2024-03-23T05:46:34;14.80;28.50
418;DHT22;49;48.530;9.200;2024-03-23T05:49:18;14.70;30.80
418;DHT22;49;48.530;9.200;2024-03-23T05:54:22;14.70;32.70
418;DHT22;49;48.530;9.200;2024-03-23T06:18:34;14.80;28.80
418;DHT22;49;48.530;9.200;2024-03-23T06:21:15;14.40;30.40
418;DHT22;49;48.530;9.200;2024-03-23T06:23:41;14.60;30.40
418;DHT22;49;48.530;9.200;2024-03-23T06:26:18;14.80;28.60
418;DHT22;49;48.530;9.200;2024-03-23T06:29:13;14.60;28.10
418;DHT22;49;48.530;9.200;2024-03-23T06:31:54;14.50;29.30
418;DHT22;49;48.530;9.200;2024-03-23T06:34:26;14.80;27.80
418;DHT22;49;48.530;9.200;2024-03-23T06:37:15;14.60;28.80
418;DHT22;49;48.530;9.200;2024-03-23T06:39:41;14.80;28.20
418;DHT22;49;48.530;9.200;2024-03-23T06:42:25;15.00;25.40
418;DHT22;49;48.530;9.200;2024-03-23T06:44:57;14.70;26.20
418;DHT22;49;48.530;9.200;2024-03-23T06:47:26;14.70;26.80
418;DHT22;49;48.530;9.200;2024-03-23T06:50:05;14.80;23.30
418;DHT22;49;48.530;9.200;2024-03-23T06:53:01;14.40;22.90
418;DHT22;49;48.530;9.200;2024-03-23T06:56:11;14.60;25.10
418;DHT22;49;48.530;9.200;2024-03-23T06:58:37;14.80;24.30
418;DHT22;49;48.530;9.200;2024-03-23T07:01:37;14.40;22.50
418;DHT22;49;48.530;9.200;2024-03-23T07:04:18;14.60;23.10
418;DHT22;49;48.530;9.200;2024-03-23T07:06:53;14.50;21.40
418;DHT22;49;48.530;9.200;2024-03-23T07:09:25;14.00;21.10
418;DHT22;49;48.530;9.200;2024-03-23T07:11:53;13.80;22.90
418;DHT22;49;48.530;9.200;2024-03-23T07:14:21;13.70;23.40
418;DHT22;49;48.530;9.200;2024-03-23T07:16:49;14.10;23.60
418;DHT22;49;48.530;9.200;2024-03-23T07:19:15;13.80;23.00
418;DHT22;49;48.530;9.200;2024-03-23T07:21:42;13.90;24.80
418;DHT22;49;48.530;9.200;2024-03-23T07:24:10;14.20;23.80
418;DHT22;49;48.530;9.200;2024-03-23T07:26:37;14.30;22.80
418;DHT22;49;48.530;9.200;2024-03-23T07:29:04;13.90;24.70
418;DHT22;49;48.530;9.200;2024-03-23T07:31:31;14.40;22.60
418;DHT22;49;48.530;9.200;2024-03-23T07:33:57;14.60;20.70
418;DHT22;49;48.530;9.200;2024-03-23T07:36:24;14.40;20.50
418;DHT22;49;48.530;9.200;2024-03-23T07:38:50;14.50;21.00
418;DHT22;49;48.530;9.200;2024-03-23T07:41:19;14.60;19.40
418;DHT22;49;48.530;9.200;2024-03-23T07:43:47;14.50;20.30
418;DHT22;49;48.530;9.200;2024-03-23T07:46:15;14.70;20.30
418;DHT22;49;48.530;9.200;2024-03-23T07:48:42;14.70;20.30
418;DHT22;49;48.530;9.200;2024-03-23T07:51:11;14.30;20.00
418;DHT22;49;48.530;9.200;2024-03-23T07:53:37;14.10;22.50
418;DHT22;49;48.530;9.200;2024-03-23T07:56:10;14.40;20.40
418;DHT22;49;48.530;9.200;2024-03-23T07:58:38;13.90;22.10
418;DHT22;49;48.530;9.200;2024-03-23T08:01:06;14.30;23.70
418;DHT22;49;48.530;9.200;2024-03-23T08:03:33;14.70;23.10
418;DHT22;49;48.530;9.200;2024-03-23T08:06:07;14.50;21.30
418;DHT22;49;48.530;9.200;2024-03-23T08:08:33;14.90;20.80
418;DHT22;49;48.530;9.200;2024-03-23T08:11:00;14.90;19.30
418;DHT22;49;48.530;9.200;2024-03-23T08:13:26;15.20;20.00
418;DHT22;49;48.530;9.200;2024-03-23T08:15:57;15.00;18.80
418;DHT22;49;48.530;9.200;2024-03-23T08:18:24;14.80;21.50
418;DHT22;49;48.530;9.200;2024-03-23T08:20:57;14.00;21.90
418;DHT22;49;48.530;9.200;2024-03-23T08:23:24;13.50;21.40
418;DHT22;49;48.530;9.200;2024-03-23T08:25:51;13.30;24.00
418;DHT22;49;48.530;9.200;2024-03-23T08:28:17;13.40;24.20
418;DHT22;49;48.530;9.200;2024-03-23T08:30:45;13.40;24.00
418;DHT22;49;48.530;9.200;2024-03-23T08:33:12;13.70;22.30
418;DHT22;49;48.530;9.200;2024-03-23T08:35:39;13.30;19.50
418;DHT22;49;48.530;9.200;2024-03-23T08:38:05;13.50;19.40
418;DHT22;49;48.530;9.200;2024-03-23T08:40:32;13.90;16.50
418;DHT22;49;48.530;9.200;2024-03-23T08:42:58;14.40;15.90
418;DHT22;49;48.530;9.200;2024-03-23T08:45:25;14.40;13.00
418;DHT22;49;48.530;9.200;2024-03-23T08:47:51;14.30;14.00
418;DHT22;49;48.530;9.200;2024-03-23T08:50:20;14.00;12.30
418;DHT22;49;48.530;9.200;2024-03-23T08:52:47;13.80;11.50
418;DHT22;49;48.530;9.200;2024-03-23T08:55:15;13.80;14.40
418;DHT22;49;48.530;9.200;2024-03-23T08:57:41;13.70;13.60
418;DHT22;49;48.530;9.200;2024-03-23T09:00:09;13.60;11.40
418;DHT22;49;48.530;9.200;2024-03-23T09:02:37;13.90;13.70
418;DHT22;49;48.530;9.200;2024-03-23T09:05:04;14.00;12.50
418;DHT22;49;48.530;9.200;2024-03-23T09:07:32;14.30;10.90
418;DHT22;49;48.530;9.200;2024-03-23T09:09:59;14.50;11.30
418;DHT22;49;48.530;9.200;2024-03-23T09:12:25;14.40;10.40
418;DHT22;49;48.530;9.200;2024-03-23T09:14:52;14.60;11.40
418;DHT22;49;48.530;9.200;2024-03-23T09:17:19;14.40;11.20
418;DHT22;49;48.530;9.200;2024-03-23T09:19:45;14.40;10.80
418;DHT22;49;48.530;9.200;2024-03-23T09:22:11;14.30;14.00
418;DHT22;49;48.530;9.200;2024-03-23T09:24:40;14.30;9.90
418;DHT22;49;48.530;9.200;2024-03-23T09:27:06;14.10;10.10
418;DHT22;49;48.530;9.200;2024-03-23T09:29:33;14.20;8.80
418;DHT22;49;48.530;9.200;2024-03-23T09:31:59;14.90;9.50
418;DHT22;49;48.530;9.200;2024-03-23T09:34:26;15.20;8.50
418;DHT22;49;48.530;9.200;2024-03-23T09:36:52;15.20;7.10
418;DHT22;49;48.530;9.200;2024-03-23T09:39:19;14.60;8.20
418;DHT22;49;48.530;9.200;2024-03-23T09:41:46;14.50;9.60
418;DHT22;49;48.530;9.200;2024-03-23T09:44:13;14.30;7.90
418;DHT22;49;48.530;9.200;2024-03-23T09:46:39;14.70;11.10
418;DHT22;49;48.530;9.200;2024-03-23T09:49:07;14.80;8.30
418;DHT22;49;48.530;9.200;2024-03-23T09:51:36;14.80;10.30
418;DHT22;49;48.530;9.200;2024-03-23T09:54:05;14.90;8.20
418;DHT22;49;48.530;9.200;2024-03-23T09:56:38;14.90;7.10
418;DHT22;49;48.530;9.200;2024-03-23T09:59:06;15.40;10.10
418;DHT22;49;48.530;9.200;2024-03-23T10:01:32;15.70;10.20
418;DHT22;49;48.530;9.200;2024-03-23T10:04:05;15.70;6.70
418;DHT22;49;48.530;9.200;2024-03-23T10:06:32;15.90;8.20
418;DHT22;49;48.530;9.200;2024-03-23T10:09:02;15.60;9.30
418;DHT22;49;48.530;9.200;2024-03-23T10:11:45;15.40;9.60
418;DHT22;49;48.530;9.200;2024-03-23T10:14:35;15.20;10.80
418;DHT22;49;48.530;9.200;2024-03-23T10:17:20;15.40;10.30
418;DHT22;49;48.530;9.200;2024-03-23T10:19:56;15.70;9.40
418;DHT22;49;48.530;9.200;2024-03-23T10:22:23;15.80;9.70
418;DHT22;49;48.530;9.200;2024-03-23T10:24:50;15.50;10.50
418;DHT22;49;48.530;9.200;2024-03-23T10:27:18;15.90;12.10
418;DHT22;49;48.530;9.200;2024-03-23T10:29:48;16.00;10.70
418;DHT22;49;48.530;9.200;2024-03-23T10:32:15;15.70;9.30
418;DHT22;49;48.530;9.200;2024-03-23T10:34:43;15.70;10.00
418;DHT22;49;48.530;9.200;2024-03-23T10:37:09;15.50;9.60
418;DHT22;49;48.530;9.200;2024-03-23T10:39:37;15.10;12.40
418;DHT22;49;48.530;9.200;2024-03-23T10:42:05;14.90;10.40
418;DHT22;49;48.530;9.200;2024-03-23T10:44:33;14.30;10.50
418;DHT22;49;48.530;9.200;2024-03-23T10:47:01;14.20;11.70
418;DHT22;49;48.530;9.200;2024-03-23T10:49:30;14.30;14.00
418;DHT22;49;48.530;9.200;2024-03-23T10:51:58;14.60;10.80
418;DHT22;49;48.530;9.200;2024-03-23T10:54:28;14.50;9.30
418;DHT22;49;48.530;9.200;2024-03-23T10:57:01;14.80;7.40
418;DHT22;49;48.530;9.200;2024-03-23T10:59:29;14.60;5.40
418;DHT22;49;48.530;9.200;2024-03-23T11:01:56;14.40;6.70
418;DHT22;49;48.530;9.200;2024-03-23T11:04:33;14.50;8.00
418;DHT22;49;48.530;9.200;2024-03-23T11:06:59;13.60;15.20
418;DHT22;49;48.530;9.200;2024-03-23T11:09:40;12.50;17.50
418;DHT22;49;48.530;9.200;2024-03-23T11:12:25;12.40;21.10
418;DHT22;49;48.530;9.200;2024-03-23T11:14:59;12.50;18.30
418;DHT22;49;48.530;9.200;2024-03-23T11:17:27;12.40;15.60
418;DHT22;49;48.530;9.200;2024-03-23T11:19:57;12.30;22.70
418;DHT22;49;48.530;9.200;2024-03-23T11:22:42;12.60;15.60
418;DHT22;49;48.530;9.200;2024-03-23T11:25:17;12.40;17.40
418;DHT22;49;48.530;9.200;2024-03-23T11:27:44;13.00;19.20
418;DHT22;49;48.530;9.200;2024-03-23T11:30:14;13.40;14.80
418;DHT22;49;48.530;9.200;2024-03-23T11:32:41;13.50;14.00
418;DHT22;49;48.530;9.200;2024-03-23T11:35:11;13.20;12.50
418;DHT22;49;48.530;9.200;2024-03-23T11:38:02;13.00;13.10
418;DHT22;49;48.530;9.200;2024-03-23T11:40:29;13.30;14.80
418;DHT22;49;48.530;9.200;2024-03-23T11:42:57;13.00;14.00
418;DHT22;49;48.530;9.200;2024-03-23T11:45:34;12.80;13.60
418;DHT22;49;48.530;9.200;2024-03-23T11:48:20;12.90;9.50
418;DHT22;49;48.530;9.200;2024-03-23T11:50:58;13.00;8.90
418;DHT22;49;48.530;9.200;2024-03-23T11:53:25;13.40;9.40
418;DHT22;49;48.530;9.200;2024-03-23T11:55:54;13.20;11.50
418;DHT22;49;48.530;9.200;2024-03-23T11:58:22;13.20;7.10
418;DHT22;49;48.530;9.200;2024-03-23T12:00:51;13.30;9.40
418;DHT22;49;48.530;9.200;2024-03-23T12:03:17;13.50;9.10
418;DHT22;49;48.530;9.200;2024-03-23T12:05:50;12.90;11.40
418;DHT22;49;48.530;9.200;2024-03-23T12:08:20;12.80;5.90
418;DHT22;49;48.530;9.200;2024-03-23T12:10:49;12.90;6.90
418;DHT22;49;48.530;9.200;2024-03-23T12:13:16;12.90;8.80
418;DHT22;49;48.530;9.200;2024-03-23T12:15:50;12.70;9.50
418;DHT22;49;48.530;9.200;2024-03-23T12:18:16;12.30;9.00
418;DHT22;49;48.530;9.200;2024-03-23T12:20:45;12.50;12.80
418;DHT22;49;48.530;9.200;2024-03-23T12:23:13;12.30;10.50
418;DHT22;49;48.530;9.200;2024-03-23T12:25:41;12.20;12.00
418;DHT22;49;48.530;9.200;2024-03-23T12:28:07;12.20;14.50
418;DHT22;49;48.530;9.200;2024-03-23T12:30:35;12.50;13.30
418;DHT22;49;48.530;9.200;2024-03-23T12:33:01;12.20;12.60
418;DHT22;49;48.530;9.200;2024-03-23T12:35:29;11.90;18.30
418;DHT22;49;48.530;9.200;2024-03-23T12:37:55;11.90;13.70
418;DHT22;49;48.530;9.200;2024-03-23T12:40:24;11.30;15.90
418;DHT22;49;48.530;9.200;2024-03-23T12:42:50;11.10;14.80
418;DHT22;49;48.530;9.200;2024-03-23T12:45:17;10.90;16.10
418;DHT22;49;48.530;9.200;2024-03-23T12:47:43;10.70;17.50
418;DHT22;49;48.530;9.200;2024-03-23T12:50:11;10.80;20.00
418;DHT22;49;48.530;9.200;2024-03-23T12:52:37;11.10;18.50
418;DHT22;49;48.530;9.200;2024-03-23T12:55:06;11.80;18.30
418;DHT22;49;48.530;9.200;2024-03-23T12:57:33;11.40;18.10
418;DHT22;49;48.530;9.200;2024-03-23T13:00:01;11.30;19.40
418;DHT22;49;48.530;9.200;2024-03-23T13:02:29;11.60;17.20
418;DHT22;49;48.530;9.200;2024-03-23T13:04:56;12.50;17.30
418;DHT22;49;48.530;9.200;2024-03-23T13:07:23;12.20;14.80
418;DHT22;49;48.530;9.200;2024-03-23T13:09:53;11.80;15.60
418;DHT22;49;48.530;9.200;2024-03-23T13:12:19;11.60;16.50
418;DHT22;49;48.530;9.200;2024-03-23T13:14:47;12.00;16.80
418;DHT22;49;48.530;9.200;2024-03-23T13:17:14;11.80;17.40
418;DHT22;49;48.530;9.200;2024-03-23T13:19:41;11.40;17.30
418;DHT22;49;48.530;9.200;2024-03-23T13:22:07;11.80;18.00
418;DHT22;49;48.530;9.200;2024-03-23T13:24:36;11.90;16.50
418;DHT22;49;48.530;9.200;2024-03-23T13:27:02;11.90;17.30
418;DHT22;49;48.530;9.200;2024-03-23T13:29:30;12.40;20.40
418;DHT22;49;48.530;9.200;2024-03-23T13:32:00;12.60;14.00
418;DHT22;49;48.530;9.200;2024-03-23T13:34:27;12.50;14.00
418;DHT22;49;48.530;9.200;2024-03-23T13:36:55;12.50;17.30
418;DHT22;49;48.530;9.200;2024-03-23T13:39:23;12.60;19.10
418;DHT22;49;48.530;9.200;2024-03-23T13:41:49;12.90;15.00
418;DHT22;49;48.530;9.200;2024-03-23T13:44:16;13.40;11.60
418;DHT22;49;48.530;9.200;2024-03-23T13:46:43;13.40;9.40
418;DHT22;49;48.530;9.200;2024-03-23T13:49:26;13.80;11.30
418;DHT22;49;48.530;9.200;2024-03-23T13:51:53;13.70;9.60
418;DHT22;49;48.530;9.200;2024-03-23T13:54:20;13.40;9.00
418;DHT22;49;48.530;9.200;2024-03-23T13:56:48;13.50;9.70
418;DHT22;49;48.530;9.200;2024-03-23T13:59:15;14.00;10.60
418;DHT22;49;48.530;9.200;2024-03-23T14:01:41;14.20;9.70
418;DHT22;49;48.530;9.200;2024-03-23T14:04:09;14.10;12.60
418;DHT22;49;48.530;9.200;2024-03-23T14:06:36;13.90;12.20
418;DHT22;49;48.530;9.200;2024-03-23T14:09:04;13.70;8.30
418;DHT22;49;48.530;9.200;2024-03-23T14:11:30;13.70;13.60
418;DHT22;49;48.530;9.200;2024-03-23T14:13:57;13.70;7.40
418;DHT22;49;48.530;9.200;2024-03-23T14:16:24;12.80;9.30
418;DHT22;49;48.530;9.200;2024-03-23T14:18:50;12.40;14.70
418;DHT22;49;48.530;9.200;2024-03-23T14:21:17;12.30;12.10
418;DHT22;49;48.530;9.200;2024-03-23T14:23:45;11.60;12.60
418;DHT22;49;48.530;9.200;2024-03-23T14:26:11;11.90;12.30
418;DHT22;49;48.530;9.200;2024-03-23T14:28:38;12.40;10.80
418;DHT22;49;48.530;9.200;2024-03-23T14:31:05;12.70;9.20
418;DHT22;49;48.530;9.200;2024-03-23T14:33:36;13.10;11.00
418;DHT22;49;48.530;9.200;2024-03-23T14:36:03;13.30;6.70
418;DHT22;49;48.530;9.200;2024-03-23T14:38:30;13.40;7.50
418;DHT22;49;48.530;9.200;2024-03-23T14:41:00;13.20;6.50
418;DHT22;49;48.530;9.200;2024-03-23T14:43:29;13.10;5.60
418;DHT22;49;48.530;9.200;2024-03-23T14:46:08;13.10;11.20
418;DHT22;49;48.530;9.200;2024-03-23T14:48:43;12.40;6.60
418;DHT22;49;48.530;9.200;2024-03-23T14:51:10;12.30;8.10
418;DHT22;49;48.530;9.200;2024-03-23T14:53:38;12.60;8.70
418;DHT22;49;48.530;9.200;2024-03-23T14:56:07;12.50;13.70
418;DHT22;49;48.530;9.200;2024-03-23T14:58:35;12.60;15.70
418;DHT22;49;48.530;9.200;2024-03-23T15:01:01;12.80;11.10
418;DHT22;49;48.530;9.200;2024-03-23T15:03:29;12.70;9.30
418;DHT22;49;48.530;9.200;2024-03-23T15:05:56;12.60;13.60
418;DHT22;49;48.530;9.200;2024-03-23T15:08:23;12.30;12.50
418;DHT22;49;48.530;9.200;2024-03-23T15:10:50;10.70;20.40
418;DHT22;49;48.530;9.200;2024-03-23T15:13:19;10.00;26.30
418;DHT22;49;48.530;9.200;2024-03-23T15:15:48;10.60;32.00
418;DHT22;49;48.530;9.200;2024-03-23T15:18:20;10.90;28.90
418;DHT22;49;48.530;9.200;2024-03-23T15:20:54;11.30;29.60
418;DHT22;49;48.530;9.200;2024-03-23T15:23:22;11.40;26.80
418;DHT22;49;48.530;9.200;2024-03-23T15:25:54;11.50;24.00
418;DHT22;49;48.530;9.200;2024-03-23T15:28:23;11.50;24.70
418;DHT22;49;48.530;9.200;2024-03-23T15:30:49;11.40;23.20
418;DHT22;49;48.530;9.200;2024-03-23T15:33:16;11.40;24.50
418;DHT22;49;48.530;9.200;2024-03-23T15:35:43;11.60;26.70
418;DHT22;49;48.530;9.200;2024-03-23T15:38:10;11.80;20.40
418;DHT22;49;48.530;9.200;2024-03-23T15:40:36;11.60;19.40
418;DHT22;49;48.530;9.200;2024-03-23T15:43:03;11.20;23.80
418;DHT22;49;48.530;9.200;2024-03-23T15:45:31;11.00;22.10
418;DHT22;49;48.530;9.200;2024-03-23T15:48:01;11.10;27.00
418;DHT22;49;48.530;9.200;2024-03-23T15:50:27;11.60;24.00
418;DHT22;49;48.530;9.200;2024-03-23T15:52:54;11.70;25.80
418;DHT22;49;48.530;9.200;2024-03-23T15:55:21;12.20;27.80
418;DHT22;49;48.530;9.200;2024-03-23T15:57:48;12.00;19.40
418;DHT22;49;48.530;9.200;2024-03-23T16:00:16;11.50;19.10
418;DHT22;49;48.530;9.200;2024-03-23T16:02:44;11.60;18.90
418;DHT22;49;48.530;9.200;2024-03-23T16:05:11;11.90;22.00
418;DHT22;49;48.530;9.200;2024-03-23T16:07:39;12.20;16.80
418;DHT22;49;48.530;9.200;2024-03-23T16:10:05;11.70;17.80
418;DHT22;49;48.530;9.200;2024-03-23T16:12:34;11.70;16.00
418;DHT22;49;48.530;9.200;2024-03-23T16:15:00;12.00;17.40
418;DHT22;49;48.530;9.200;2024-03-23T16:17:27;12.20;17.40
418;DHT22;49;48.530;9.200;2024-03-23T16:19:56;12.50;16.00
418;DHT22;49;48.530;9.200;2024-03-23T16:22:24;12.60;15.30
418;DHT22;49;48.530;9.200;2024-03-23T16:24:50;13.20;16.50
418;DHT22;49;48.530;9.200;2024-03-23T16:27:19;13.30;13.00
418;DHT22;49;48.530;9.200;2024-03-23T16:29:55;13.30;15.80
418;DHT22;49;48.530;9.200;2024-03-23T16:32:53;13.20;12.20
418;DHT22;49;48.530;9.200;2024-03-23T16:35:21;13.20;12.80
418;DHT22;49;48.530;9.200;2024-03-23T16:37:48;12.90;13.50
418;DHT22;49;48.530;9.200;2024-03-23T16:40:14;12.60;14.50
418;DHT22;49;48.530;9.200;2024-03-23T16:42:41;12.30;15.70
418;DHT22;49;48.530;9.200;2024-03-23T16:45:08;11.90;14.80
418;DHT22;49;48.530;9.200;2024-03-23T16:47:35;11.10;13.80
418;DHT22;49;48.530;9.200;2024-03-23T16:50:01;11.00;17.70
418;DHT22;49;48.530;9.200;2024-03-23T16:52:30;11.50;19.00
418;DHT22;49;48.530;9.200;2024-03-23T16:54:56;11.80;14.30
418;DHT22;49;48.530;9.200;2024-03-23T16:57:23;12.10;15.30
418;DHT22;49;48.530;9.200;2024-03-23T16:59:49;11.40;15.40
418;DHT22;49;48.530;9.200;2024-03-23T17:02:17;11.40;15.00
418;DHT22;49;48.530;9.200;2024-03-23T17:04:43;10.80;15.70
418;DHT22;49;48.530;9.200;2024-03-23T17:07:11;11.20;14.80
418;DHT22;49;48.530;9.200;2024-03-23T17:09:46;11.20;14.70
418;DHT22;49;48.530;9.200;2024-03-23T17:12:15;11.00;15.30
418;DHT22;49;48.530;9.200;2024-03-23T17:14:41;10.80;17.60
418;DHT22;49;48.530;9.200;2024-03-23T17:17:22;11.00;17.70
418;DHT22;49;48.530;9.200;2024-03-23T17:19:50;10.60;17.20
418;DHT22;49;48.530;9.200;2024-03-23T17:22:24;10.20;17.40
418;DHT22;49;48.530;9.200;2024-03-23T17:24:54;10.40;17.90
418;DHT22;49;48.530;9.200;2024-03-23T17:27:20;10.50;18.60
418;DHT22;49;48.530;9.200;2024-03-23T17:29:47;10.60;23.20
418;DHT22;49;48.530;9.200;2024-03-23T17:32:13;10.60;18.10
418;DHT22;49;48.530;9.200;2024-03-23T17:34:40;10.60;18.90
418;DHT22;49;48.530;9.200;2024-03-23T17:37:09;10.70;20.20
418;DHT22;49;48.530;9.200;2024-03-23T17:39:36;10.70;18.00
418;DHT22;49;48.530;9.200;2024-03-23T17:42:04;10.70;20.10
418;DHT22;49;48.530;9.200;2024-03-23T17:44:31;10.80;17.70
418;DHT22;49;48.530;9.200;2024-03-23T17:46:57;10.90;20.20
418;DHT22;49;48.530;9.200;2024-03-23T17:49:24;10.60;19.30
418;DHT22;49;48.530;9.200;2024-03-23T17:51:50;10.40;20.10
418;DHT22;49;48.530;9.200;2024-03-23T17:54:17;10.40;22.10
418;DHT22;49;48.530;9.200;2024-03-23T17:56:45;11.10;18.90
418;DHT22;49;48.530;9.200;2024-03-23T17:59:22;11.10;17.80
418;DHT22;49;48.530;9.200;2024-03-23T18:01:49;11.00;17.70
418;DHT22;49;48.530;9.200;2024-03-23T18:04:16;11.00;18.20
418;DHT22;49;48.530;9.200;2024-03-23T18:06:43;11.10;24.40
418;DHT22;49;48.530;9.200;2024-03-23T18:09:12;11.40;20.70
418;DHT22;49;48.530;9.200;2024-03-23T18:11:38;11.20;17.90
418;DHT22;49;48.530;9.200;2024-03-23T18:14:05;10.90;21.80
418;DHT22;49;48.530;9.200;2024-03-23T18:16:34;10.90;20.70
418;DHT22;49;48.530;9.200;2024-03-23T18:19:06;11.30;20.60
418;DHT22;49;48.530;9.200;2024-03-23T18:21:32;11.20;23.60
418;DHT22;49;48.530;9.200;2024-03-23T18:23:59;10.60;18.40